Time;durP1;ratioP1;P1;durP2;ratioP2;P2;SDS_P1;SDS_P2;PMS_P1;PMS_P2;Temp;Humidity;BMP_temperature;BMP_pressure;BME280_temperature;BME280_humidity;BME280_pressure;Samples;Min_cycle;Max_cycle;Signal;HPM_P1;HPM_P2
2023/05/17 00:01:47;;;;;;;5.33;1.90;;;7.60;99.90;;;;;;5007392;28;20350;-60
2023/05/17 00:04:13;;;;;;;3.53;1.60;;;7.60;99.90;;;;;;5003016;28;20831;-59
2023/05/17 00:06:38;;;;;;;3.97;2.07;;;7.60;99.90;;;;;;4999960;28;20633;-59
2023/05/17 00:09:04;;;;;;;2.90;1.60;;;7.60;99.90;;;;;;5006073;28;20657;-59
2023/05/17 00:11:30;;;;;;;3.33;1.60;;;7.60;99.90;;;;;;5003392;28;20181;-59
2023/05/17 00:13:56;;;;;;;3.43;1.87;;;7.60;99.90;;;;;;5004920;28;20279;-58
2023/05/17 00:16:21;;;;;;;2.40;1.60;;;7.60;99.90;;;;;;5004129;28;20276;-59
2023/05/17 00:18:47;;;;;;;5.03;1.90;;;7.60;99.90;;;;;;5002789;28;20188;-58
2023/05/17 00:21:12;;;;;;;1.90;1.70;;;7.60;99.90;;;;;;4992791;28;20205;-59
2023/05/17 00:23:38;;;;;;;5.30;2.13;;;7.60;99.90;;;;;;5003268;28;20720;-59
2023/05/17 00:26:03;;;;;;;2.80;2.17;;;7.60;99.90;;;;;;5006359;28;20614;-59
2023/05/17 00:28:29;;;;;;;5.00;1.80;;;7.50;99.90;;;;;;5007075;28;20176;-59
2023/05/17 00:30:55;;;;;;;5.33;1.73;;;7.50;99.90;;;;;;5001375;28;20188;-58
2023/05/17 00:33:20;;;;;;;5.77;1.97;;;7.50;99.90;;;;;;5003748;28;20251;-59
2023/05/17 00:35:46;;;;;;;7.53;1.80;;;7.50;99.90;;;;;;5000384;28;20434;-59
2023/05/17 00:38:11;;;;;;;9.50;1.90;;;7.50;99.90;;;;;;5004318;28;20176;-58
2023/05/17 00:40:37;;;;;;;5.23;1.80;;;7.60;99.90;;;;;;4999813;28;20213;-60
2023/05/17 00:43:03;;;;;;;7.57;1.77;;;7.60;99.90;;;;;;4999460;28;20664;-59
2023/05/17 00:45:28;;;;;;;3.93;2.00;;;7.60;99.90;;;;;;5005315;28;20204;-59
2023/05/17 00:47:54;;;;;;;4.03;2.00;;;7.60;99.90;;;;;;5003120;28;20180;-59
2023/05/17 00:50:20;;;;;;;8.80;2.00;;;7.60;99.90;;;;;;5000800;28;20168;-59
2023/05/17 00:52:46;;;;;;;3.87;1.97;;;7.50;99.90;;;;;;5000410;28;20561;-60
2023/05/17 00:55:11;;;;;;;4.37;1.70;;;7.60;99.90;;;;;;4997137;28;20208;-58
2023/05/17 00:57:37;;;;;;;3.00;1.97;;;7.60;99.90;;;;;;4999995;28;20211;-59
2023/05/17 01:00:03;;;;;;;10.60;2.13;;;7.50;99.90;;;;;;5004846;28;20617;-59
2023/05/17 01:02:29;;;;;;;2.80;1.83;;;7.50;99.90;;;;;;4999440;28;20475;-59
2023/05/17 01:04:56;;;;;;;5.03;1.83;;;7.50;99.90;;;;;;4999240;28;20436;-59
2023/05/17 01:07:21;;;;;;;4.73;1.73;;;7.50;99.90;;;;;;5001094;28;20177;-60
2023/05/17 01:09:47;;;;;;;2.20;1.70;;;7.50;99.90;;;;;;5004077;28;20435;-58
2023/05/17 01:12:25;;;;;;;2.07;1.63;;;7.40;99.90;;;;;;5003070;28;20665;-58
2023/05/17 01:15:05;;;;;;;3.67;2.13;;;7.40;99.90;;;;;;5004710;28;20585;-60
2023/05/17 01:17:52;;;;;;;4.33;1.90;;;7.40;99.90;;;;;;4997708;28;20778;-58
2023/05/17 01:20:40;;;;;;;3.10;1.90;;;7.40;99.90;;;;;;5000658;28;20427;-59
2023/05/17 01:23:47;;;;;;;6.50;1.90;;;7.30;99.90;;;;;;5005771;28;20450;-60
2023/05/17 01:26:12;;;;;;;5.90;2.00;;;7.30;99.90;;;;;;5000890;28;20440;-59
2023/05/17 01:28:39;;;;;;;5.50;2.20;;;7.30;99.90;;;;;;4997801;28;20831;-59
2023/05/17 01:31:06;;;;;;;2.83;2.17;;;7.30;99.90;;;;;;5003420;28;20190;-60
2023/05/17 01:33:32;;;;;;;5.63;2.10;;;7.30;99.90;;;;;;5000167;28;20483;-57
2023/05/17 01:35:58;;;;;;;1.93;1.80;;;7.30;99.90;;;;;;4996149;28;20435;-59
2023/05/17 01:38:23;;;;;;;2.17;1.60;;;7.30;99.90;;;;;;5001276;28;20589;-59
2023/05/17 01:41:27;;;;;;;5.40;2.27;;;7.30;99.90;;;;;;5002722;28;20255;-59
2023/05/17 01:44:01;;;;;;;16.33;2.10;;;7.30;99.90;;;;;;4940325;28;20634;-59
2023/05/17 01:46:42;;;;;;;4.70;1.73;;;7.30;99.90;;;;;;4992152;28;21046;-59
2023/05/17 01:49:28;;;;;;;3.43;2.17;;;7.30;99.90;;;;;;5003182;28;20769;-59
2023/05/17 01:52:08;;;;;;;4.93;2.00;;;7.30;99.90;;;;;;5003743;28;20958;-62
2023/05/17 01:54:44;;;;;;;4.40;2.03;;;7.20;99.90;;;;;;5007551;28;20423;-59
2023/05/17 01:57:12;;;;;;;4.07;2.10;;;7.20;99.90;;;;;;5004722;28;20423;-60
2023/05/17 01:59:39;;;;;;;4.30;1.93;;;7.20;99.90;;;;;;5003120;28;20963;-59
2023/05/17 02:02:07;;;;;;;3.93;2.10;;;7.10;99.90;;;;;;4999763;28;20467;-55
2023/05/17 02:04:33;;;;;;;3.57;2.30;;;7.10;99.90;;;;;;5002903;28;20784;-51
2023/05/17 02:06:59;;;;;;;2.17;1.80;;;7.10;99.90;;;;;;5004496;28;20420;-52
2023/05/17 02:09:24;;;;;;;5.60;2.40;;;7.00;99.90;;;;;;5007734;28;20451;-52
2023/05/17 02:11:50;;;;;;;2.57;1.80;;;7.00;99.90;;;;;;4999046;28;20637;-52
2023/05/17 02:14:16;;;;;;;10.20;2.30;;;7.00;99.90;;;;;;5008254;28;20221;-52
2023/05/17 02:16:41;;;;;;;7.57;2.33;;;6.90;99.90;;;;;;5002156;28;20684;-52
2023/05/17 02:19:07;;;;;;;3.93;1.90;;;6.90;99.90;;;;;;5002199;28;20294;-51
2023/05/17 02:21:34;;;;;;;6.03;2.40;;;6.90;99.90;;;;;;5002278;28;20196;-53
2023/05/17 02:23:59;;;;;;;5.47;2.50;;;6.80;99.90;;;;;;5007846;28;20435;-52
2023/05/17 02:26:26;;;;;;;4.23;2.27;;;6.80;99.90;;;;;;5006173;28;20443;-52
2023/05/17 02:28:52;;;;;;;3.63;1.60;;;6.80;99.90;;;;;;5008713;28;20246;-52
2023/05/17 02:31:17;;;;;;;7.87;2.10;;;6.70;99.90;;;;;;5001961;28;20431;-52
2023/05/17 02:33:43;;;;;;;3.23;2.10;;;6.70;99.90;;;;;;5000508;28;20232;-53
2023/05/17 02:36:09;;;;;;;4.53;2.00;;;6.70;99.90;;;;;;5008016;28;20200;-51
2023/05/17 02:38:34;;;;;;;4.47;1.90;;;6.60;99.90;;;;;;5011694;28;20688;-52
2023/05/17 02:41:00;;;;;;;6.77;2.30;;;6.60;99.90;;;;;;5006187;28;20319;-53
2023/05/17 02:43:26;;;;;;;2.50;2.03;;;6.60;99.90;;;;;;5005990;28;20215;-53
2023/05/17 02:45:51;;;;;;;6.27;2.47;;;6.60;99.90;;;;;;5003358;28;20193;-53
2023/05/17 02:48:17;;;;;;;5.30;1.80;;;6.60;99.90;;;;;;5004929;28;20188;-51
2023/05/17 02:50:42;;;;;;;5.07;2.20;;;6.60;99.90;;;;;;5005166;28;20267;-51
2023/05/17 02:53:08;;;;;;;1.70;1.60;;;6.50;99.90;;;;;;5002750;28;20339;-53
2023/05/17 02:55:34;;;;;;;7.20;1.93;;;6.50;99.90;;;;;;4998719;28;20819;-54
2023/05/17 02:58:00;;;;;;;5.17;2.33;;;6.50;99.90;;;;;;5002144;28;20181;-54
2023/05/17 03:00:25;;;;;;;2.43;2.07;;;6.50;99.90;;;;;;5004787;28;20444;-52
2023/05/17 03:02:51;;;;;;;8.13;1.97;;;6.40;99.90;;;;;;5001101;28;20188;-54
2023/05/17 03:05:16;;;;;;;10.60;2.10;;;6.40;99.90;;;;;;5004258;28;20343;-52
2023/05/17 03:07:42;;;;;;;3.77;2.00;;;6.40;99.90;;;;;;5006746;28;20203;-52
2023/05/17 03:10:08;;;;;;;7.43;2.23;;;6.40;99.90;;;;;;5001261;28;20180;-53
2023/05/17 03:12:33;;;;;;;3.10;1.90;;;6.40;99.90;;;;;;4998162;28;20287;-51
2023/05/17 03:14:59;;;;;;;3.87;1.60;;;6.40;99.90;;;;;;5004603;28;20191;-54
2023/05/17 03:17:25;;;;;;;5.77;2.07;;;6.40;99.90;;;;;;5005018;28;20188;-53
2023/05/17 03:19:50;;;;;;;5.47;2.17;;;6.40;99.90;;;;;;5003561;28;20764;-53
2023/05/17 03:22:16;;;;;;;7.00;1.80;;;6.40;99.90;;;;;;5004291;28;20463;-53
2023/05/17 03:24:42;;;;;;;2.50;1.77;;;6.40;99.90;;;;;;5005185;28;20223;-52
2023/05/17 03:27:07;;;;;;;6.90;2.30;;;6.40;99.90;;;;;;5001179;28;20184;-53
2023/05/17 03:29:33;;;;;;;3.70;1.93;;;6.40;99.90;;;;;;5003069;28;20223;-54
2023/05/17 03:31:58;;;;;;;3.80;2.00;;;6.40;99.90;;;;;;5004329;28;20201;-53
2023/05/17 03:34:24;;;;;;;6.00;1.87;;;6.30;99.90;;;;;;5003490;28;20339;-52
2023/05/17 03:36:50;;;;;;;6.27;2.07;;;6.30;99.90;;;;;;5001265;28;20557;-53
2023/05/17 03:39:16;;;;;;;12.57;5.03;;;6.30;99.90;;;;;;5005951;28;20427;-52
2023/05/17 03:41:41;;;;;;;31.30;13.23;;;6.30;99.90;;;;;;5002987;28;20242;-58
2023/05/17 03:44:07;;;;;;;25.77;8.30;;;6.30;99.90;;;;;;5003301;28;20176;-52
2023/05/17 03:46:33;;;;;;;12.00;5.10;;;6.30;99.90;;;;;;4999830;28;20176;-52
2023/05/17 03:48:58;;;;;;;5.40;2.90;;;6.30;99.90;;;;;;5001839;28;20231;-53
2023/05/17 03:51:24;;;;;;;6.13;2.37;;;6.30;99.90;;;;;;4995023;28;20196;-53
2023/05/17 03:53:57;;;;;;;7.80;2.80;;;6.20;99.90;;;;;;5001341;28;20184;-55
2023/05/17 03:56:22;;;;;;;10.63;3.07;;;6.30;99.90;;;;;;5001131;28;20221;-55
2023/05/17 03:58:48;;;;;;;7.90;2.70;;;6.20;99.90;;;;;;5003914;28;20517;-55
2023/05/17 04:01:14;;;;;;;9.83;3.23;;;6.20;99.90;;;;;;4999702;28;20203;-59
2023/05/17 04:03:39;;;;;;;5.70;2.10;;;6.20;99.90;;;;;;4997770;28;20599;-57
2023/05/17 04:06:06;;;;;;;8.57;2.50;;;6.30;99.90;;;;;;4999184;28;20180;-55
2023/05/17 04:08:32;;;;;;;5.23;1.90;;;6.20;99.90;;;;;;5005148;28;20591;-55
2023/05/17 04:10:58;;;;;;;5.10;2.20;;;6.20;99.90;;;;;;4992500;28;20432;-58
2023/05/17 04:13:24;;;;;;;4.40;2.00;;;6.20;99.90;;;;;;5000121;28;20506;-57
2023/05/17 04:15:50;;;;;;;6.10;2.40;;;6.20;99.90;;;;;;4997984;28;20185;-56
2023/05/17 04:18:15;;;;;;;5.70;2.30;;;6.20;99.90;;;;;;4995301;28;20427;-55
2023/05/17 04:20:41;;;;;;;2.80;1.63;;;6.20;99.90;;;;;;4995035;28;20181;-57
2023/05/17 04:23:07;;;;;;;3.70;1.97;;;6.20;99.90;;;;;;4995862;28;20930;-55
2023/05/17 04:25:33;;;;;;;8.63;2.13;;;6.20;99.90;;;;;;4995301;28;20280;-55
2023/05/17 04:27:59;;;;;;;9.70;2.40;;;6.20;99.90;;;;;;4998615;28;20423;-55
2023/05/17 04:30:24;;;;;;;3.37;2.20;;;6.20;99.90;;;;;;4982389;28;22530;-58
2023/05/17 04:32:50;;;;;;;6.00;2.10;;;6.10;99.90;;;;;;4989014;28;20196;-59
2023/05/17 04:35:16;;;;;;;6.57;1.87;;;6.20;99.90;;;;;;5002822;28;20216;-59
2023/05/17 04:37:41;;;;;;;6.70;2.00;;;6.20;99.90;;;;;;4986891;28;20234;-58
2023/05/17 04:40:08;;;;;;;3.63;1.90;;;6.20;99.90;;;;;;4991723;28;20331;-56
2023/05/17 04:42:34;;;;;;;10.97;2.07;;;6.20;99.90;;;;;;4998719;28;20208;-58
2023/05/17 04:45:00;;;;;;;4.47;1.90;;;6.20;99.90;;;;;;5001499;28;20991;-56
2023/05/17 04:47:25;;;;;;;6.73;2.60;;;6.20;99.90;;;;;;5001431;28;20443;-56
2023/05/17 04:49:51;;;;;;;11.00;2.70;;;6.30;99.90;;;;;;4998841;28;20267;-58
2023/05/17 04:52:17;;;;;;;3.50;2.80;;;6.30;99.90;;;;;;5001214;28;20248;-56
2023/05/17 04:54:42;;;;;;;10.87;2.20;;;6.40;99.90;;;;;;4999240;28;20176;-57
2023/05/17 04:57:08;;;;;;;5.87;2.27;;;6.40;99.90;;;;;;4995217;28;20181;-59
2023/05/17 04:59:33;;;;;;;2.70;1.87;;;6.50;99.90;;;;;;4997942;28;20632;-58
2023/05/17 05:01:59;;;;;;;6.40;2.57;;;6.50;99.90;;;;;;4988987;28;20211;-59
2023/05/17 05:04:25;;;;;;;5.20;1.73;;;6.50;99.90;;;;;;4995376;28;20212;-56
2023/05/17 05:06:51;;;;;;;3.27;2.03;;;6.50;99.90;;;;;;4995735;28;20518;-59
2023/05/17 05:09:16;;;;;;;4.57;2.03;;;6.50;99.90;;;;;;4999194;28;20184;-58
2023/05/17 05:11:42;;;;;;;5.23;2.00;;;6.50;99.90;;;;;;4997722;28;20188;-59
2023/05/17 05:14:08;;;;;;;3.67;2.30;;;6.50;99.90;;;;;;5004647;28;20193;-59
2023/05/17 05:16:33;;;;;;;4.30;2.57;;;6.50;99.90;;;;;;5001901;28;20259;-58
2023/05/17 05:18:59;;;;;;;6.27;2.70;;;6.50;99.90;;;;;;5000453;28;20187;-57
2023/05/17 05:21:24;;;;;;;6.23;2.30;;;6.50;99.90;;;;;;4994860;28;20209;-56
2023/05/17 05:23:50;;;;;;;13.97;2.33;;;6.50;99.90;;;;;;4993396;28;20181;-57
2023/05/17 05:26:16;;;;;;;4.10;2.30;;;6.50;99.90;;;;;;4997544;28;20191;-59
2023/05/17 05:28:42;;;;;;;4.80;2.20;;;6.60;99.90;;;;;;5006531;28;20176;-56
2023/05/17 05:31:07;;;;;;;13.33;2.60;;;6.60;99.90;;;;;;5002462;28;20652;-58
2023/05/17 05:33:33;;;;;;;6.17;2.53;;;6.60;99.90;;;;;;4998817;28;20467;-58
2023/05/17 05:35:58;;;;;;;8.20;2.80;;;6.60;99.90;;;;;;5000761;28;20177;-58
2023/05/17 05:38:24;;;;;;;4.07;1.90;;;6.60;99.90;;;;;;5001405;28;20721;-57
2023/05/17 05:40:50;;;;;;;4.87;1.90;;;6.60;99.90;;;;;;4995962;28;20211;-57
2023/05/17 05:43:15;;;;;;;11.90;2.10;;;6.60;99.90;;;;;;4995331;28;20619;-57
2023/05/17 05:45:44;;;;;;;9.33;2.50;;;6.70;99.90;;;;;;5000036;28;20169;-56
2023/05/17 05:48:14;;;;;;;7.43;2.23;;;6.80;99.90;;;;;;5000751;28;20184;-57
2023/05/17 05:50:43;;;;;;;8.50;2.40;;;6.90;99.90;;;;;;4999014;28;20789;-57
2023/05/17 05:53:10;;;;;;;4.27;2.03;;;7.00;99.90;;;;;;5000501;28;20471;-57
2023/05/17 05:55:38;;;;;;;5.17;2.30;;;7.10;99.90;;;;;;5005470;28;20562;-58
2023/05/17 05:58:04;;;;;;;4.40;2.20;;;7.30;99.90;;;;;;5000703;28;20423;-58
2023/05/17 06:00:30;;;;;;;5.07;1.93;;;7.50;99.90;;;;;;4996396;28;20883;-57
2023/05/17 06:02:56;;;;;;;8.23;2.03;;;7.80;99.90;;;;;;5000532;28;20214;-58
2023/05/17 06:05:21;;;;;;;7.93;2.30;;;7.90;99.90;;;;;;4998673;28;20266;-57
2023/05/17 06:07:47;;;;;;;6.67;2.00;;;8.10;99.90;;;;;;4995740;28;20494;-57
2023/05/17 06:10:13;;;;;;;6.80;2.10;;;8.20;99.90;;;;;;4998103;28;20188;-57
2023/05/17 06:12:38;;;;;;;9.43;2.30;;;8.40;99.90;;;;;;4999578;28;20661;-58
2023/05/17 06:15:05;;;;;;;6.73;1.80;;;8.50;99.90;;;;;;5000371;28;20275;-57
2023/05/17 06:17:31;;;;;;;5.10;2.00;;;8.60;99.90;;;;;;4999534;28;20173;-58
2023/05/17 06:19:56;;;;;;;4.47;1.63;;;8.70;99.70;;;;;;4998821;28;20822;-57
2023/05/17 06:22:22;;;;;;;6.80;2.17;;;8.80;98.70;;;;;;5000642;28;20216;-57
2023/05/17 06:24:48;;;;;;;8.87;2.00;;;8.90;97.60;;;;;;4998960;28;20191;-58
2023/05/17 06:27:13;;;;;;;6.23;1.87;;;9.00;95.20;;;;;;5001572;28;20223;-57
2023/05/17 06:29:39;;;;;;;7.30;2.00;;;9.00;94.40;;;;;;4993011;28;20615;-56
2023/05/17 06:32:05;;;;;;;4.03;2.10;;;9.10;93.00;;;;;;5001105;28;20265;-57
2023/05/17 06:34:31;;;;;;;6.70;1.83;;;9.10;92.40;;;;;;5005805;28;20268;-56
2023/05/17 06:36:57;;;;;;;13.70;2.40;;;9.20;93.50;;;;;;5005498;28;20814;-57
2023/05/17 06:39:22;;;;;;;8.70;2.77;;;9.30;93.60;;;;;;5001388;28;20204;-57
2023/05/17 06:41:48;;;;;;;6.70;2.27;;;9.40;93.10;;;;;;4997710;28;20478;-57
2023/05/17 06:44:13;;;;;;;7.80;2.03;;;9.40;91.80;;;;;;4997092;28;20210;-58
2023/05/17 06:46:39;;;;;;;7.93;2.50;;;9.50;90.20;;;;;;4999279;28;20661;-58
2023/05/17 06:49:05;;;;;;;2.93;1.80;;;9.60;88.60;;;;;;4995549;28;20184;-56
2023/05/17 06:51:30;;;;;;;5.53;2.40;;;9.70;84.90;;;;;;4996464;28;20201;-58
2023/05/17 06:53:56;;;;;;;8.93;2.17;;;9.70;78.10;;;;;;5000515;28;20479;-58
2023/05/17 06:56:22;;;;;;;2.73;2.10;;;9.80;76.20;;;;;;4998977;28;20173;-58
2023/05/17 06:58:47;;;;;;;4.93;1.83;;;9.80;77.00;;;;;;4995943;28;20498;-57
2023/05/17 07:01:13;;;;;;;5.80;2.00;;;9.80;74.70;;;;;;4998042;28;20196;-58
2023/05/17 07:03:38;;;;;;;7.07;2.83;;;9.80;76.00;;;;;;4993242;28;20204;-57
2023/05/17 07:06:04;;;;;;;8.17;2.10;;;9.70;75.60;;;;;;4999697;28;20189;-58
2023/05/17 07:08:30;;;;;;;7.20;2.37;;;9.60;77.20;;;;;;4997986;28;20176;-58
2023/05/17 07:10:55;;;;;;;5.90;2.30;;;9.60;79.30;;;;;;4997547;28;20177;-56
2023/05/17 07:13:21;;;;;;;6.93;2.40;;;9.70;80.20;;;;;;4999695;28;20239;-58
2023/05/17 07:15:47;;;;;;;4.57;2.27;;;9.70;79.90;;;;;;4995481;28;20176;-56
2023/05/17 07:18:13;;;;;;;9.70;2.40;;;9.80;79.60;;;;;;4997617;28;20184;-58
2023/05/17 07:20:38;;;;;;;3.50;2.23;;;9.90;80.80;;;;;;4998020;28;20843;-58
2023/05/17 07:23:04;;;;;;;6.60;2.63;;;9.90;77.90;;;;;;5000517;28;20199;-58
2023/05/17 07:25:30;;;;;;;4.33;2.17;;;10.00;76.90;;;;;;5000178;28;20180;-58
2023/05/17 07:27:56;;;;;;;5.83;2.20;;;10.10;74.50;;;;;;4995839;28;20235;-58
2023/05/17 07:30:21;;;;;;;8.40;2.27;;;10.10;77.40;;;;;;5019904;28;20779;-57
2023/05/17 07:32:47;;;;;;;10.63;2.70;;;10.10;74.80;;;;;;4997771;28;20204;-58
2023/05/17 07:35:13;;;;;;;12.87;3.17;;;10.10;73.20;;;;;;4997920;28;20254;-58
2023/05/17 07:37:38;;;;;;;10.33;2.30;;;10.20;75.60;;;;;;4998028;28;21121;-58
2023/05/17 07:40:04;;;;;;;11.60;2.80;;;10.20;76.20;;;;;;4999390;28;20788;-58
2023/05/17 07:42:31;;;;;;;5.30;2.73;;;10.30;75.60;;;;;;4992688;28;20212;-57
2023/05/17 07:44:57;;;;;;;6.30;2.77;;;10.30;72.90;;;;;;5002174;28;20447;-57
2023/05/17 07:47:22;;;;;;;4.37;2.10;;;10.40;72.10;;;;;;4998671;28;20491;-57
2023/05/17 07:49:48;;;;;;;3.60;2.10;;;10.40;72.40;;;;;;4994844;28;20947;-57
2023/05/17 07:52:14;;;;;;;4.93;2.57;;;10.40;70.60;;;;;;4994602;28;20253;-57
2023/05/17 07:54:39;;;;;;;8.73;2.23;;;10.50;72.20;;;;;;4995479;28;20194;-58
2023/05/17 07:57:05;;;;;;;4.03;2.40;;;10.50;70.80;;;;;;4993040;28;20180;-58
2023/05/17 07:59:30;;;;;;;7.10;2.40;;;10.50;71.10;;;;;;4996320;28;20181;-56
2023/05/17 08:01:56;;;;;;;5.53;2.27;;;10.50;68.10;;;;;;4993985;28;20216;-59
2023/05/17 08:04:23;;;;;;;8.37;2.10;;;10.50;66.30;;;;;;4996418;28;20169;-57
2023/05/17 08:06:48;;;;;;;8.20;2.20;;;10.50;67.20;;;;;;4995959;28;20176;-58
2023/05/17 08:09:15;;;;;;;6.20;2.17;;;10.50;67.40;;;;;;4995419;28;22223;-58
2023/05/17 08:11:44;;;;;;;6.27;2.50;;;10.60;65.20;;;;;;4992174;28;20460;-58
2023/05/17 08:14:14;;;;;;;8.17;2.73;;;10.60;65.90;;;;;;4995702;28;20511;-58
2023/05/17 08:16:45;;;;;;;6.07;2.63;;;10.60;67.10;;;;;;4992755;28;20770;-56
2023/05/17 08:19:12;;;;;;;11.40;2.30;;;10.60;67.20;;;;;;4994461;28;20513;-58
2023/05/17 08:21:38;;;;;;;6.50;2.37;;;10.50;67.50;;;;;;5000825;28;20465;-58
2023/05/17 08:24:05;;;;;;;7.53;2.47;;;10.50;68.70;;;;;;4998446;28;20424;-57
2023/05/17 08:26:30;;;;;;;7.70;2.90;;;10.50;71.60;;;;;;4995317;28;21163;-57
2023/05/17 08:28:56;;;;;;;7.73;2.87;;;10.50;75.20;;;;;;4994305;28;20463;-57
2023/05/17 08:31:21;;;;;;;3.87;2.07;;;10.50;73.80;;;;;;4993975;28;20176;-58
2023/05/17 08:33:47;;;;;;;5.30;2.60;;;10.50;72.80;;;;;;4992174;28;20304;-56
2023/05/17 08:36:12;;;;;;;14.43;3.33;;;10.50;73.30;;;;;;4995836;28;20258;-58
2023/05/17 08:38:38;;;;;;;218.20;33.47;;;10.60;76.10;;;;;;4995613;28;20606;-58
2023/05/17 08:41:04;;;;;;;12.37;4.33;;;10.60;75.80;;;;;;4996432;28;20216;-58
2023/05/17 08:43:30;;;;;;;7.70;2.70;;;10.70;74.90;;;;;;4998031;28;20188;-59
2023/05/17 08:45:58;;;;;;;6.37;3.43;;;10.70;72.90;;;;;;4996292;28;20641;-57
2023/05/17 08:48:26;;;;;;;6.30;2.70;;;10.70;73.70;;;;;;4991504;28;20594;-58
2023/05/17 08:50:54;;;;;;;7.50;2.60;;;10.70;67.60;;;;;;5000471;28;20530;-59
2023/05/17 08:53:20;;;;;;;10.43;2.50;;;10.70;64.80;;;;;;4998644;28;21485;-58
2023/05/17 08:55:47;;;;;;;3.83;2.13;;;10.70;65.00;;;;;;4998822;28;20431;-58
2023/05/17 08:58:17;;;;;;;3.90;2.40;;;10.80;66.40;;;;;;5000370;28;20455;-58
2023/05/17 09:00:42;;;;;;;5.80;2.57;;;10.80;65.00;;;;;;4998396;28;20429;-58
2023/05/17 09:03:10;;;;;;;15.90;2.90;;;10.90;66.90;;;;;;4992679;28;20451;-57
2023/05/17 09:05:35;;;;;;;3.77;2.63;;;11.00;68.30;;;;;;4994570;28;20169;-58
2023/05/17 09:08:01;;;;;;;9.00;2.67;;;11.20;64.90;;;;;;4995361;28;21988;-58
2023/05/17 09:10:27;;;;;;;5.83;2.63;;;11.30;62.50;;;;;;4991733;28;20484;-57
2023/05/17 09:12:53;;;;;;;4.20;2.20;;;11.20;61.70;;;;;;4996546;28;20204;-58
2023/05/17 09:15:22;;;;;;;5.63;2.50;;;11.20;60.70;;;;;;4991521;28;20183;-59
2023/05/17 09:17:53;;;;;;;5.23;2.40;;;11.10;59.70;;;;;;4995476;28;20269;-57
2023/05/17 09:20:33;;;;;;;14.83;3.87;;;11.00;59.80;;;;;;4993564;28;20486;-57
2023/05/17 09:23:00;;;;;;;4.33;2.37;;;11.10;60.60;;;;;;4995567;28;20473;-57
2023/05/17 09:25:30;;;;;;;3.23;2.57;;;11.10;59.20;;;;;;4995451;28;20538;-57
2023/05/17 09:28:06;;;;;;;5.63;2.10;;;11.40;61.50;;;;;;4995996;28;20419;-57
2023/05/17 09:30:33;;;;;;;5.20;2.27;;;11.60;59.10;;;;;;4993434;28;20435;-57
2023/05/17 09:33:06;;;;;;;6.17;2.70;;;11.60;57.60;;;;;;4993616;28;20459;-59
2023/05/17 09:35:33;;;;;;;4.40;2.10;;;11.70;56.70;;;;;;4996172;28;20471;-59
2023/05/17 09:38:06;;;;;;;3.13;2.20;;;11.70;56.40;;;;;;4996405;28;20940;-60
2023/05/17 09:40:32;;;;;;;6.60;2.20;;;11.90;56.70;;;;;;4995552;28;20432;-59
2023/05/17 09:42:59;;;;;;;7.40;2.07;;;12.10;57.10;;;;;;4996787;28;20470;-59
2023/05/17 09:45:25;;;;;;;17.53;2.97;;;12.20;55.00;;;;;;4994644;28;20430;-59
2023/05/17 09:47:51;;;;;;;4.80;2.10;;;12.30;54.20;;;;;;4997339;28;20807;-58
2023/05/17 09:50:20;;;;;;;7.90;2.60;;;12.30;51.90;;;;;;4998220;28;20176;-57
2023/05/17 09:52:46;;;;;;;4.83;2.13;;;12.20;52.20;;;;;;4996120;28;20810;-59
2023/05/17 09:55:12;;;;;;;4.93;2.07;;;12.20;53.20;;;;;;4998413;28;20457;-58
2023/05/17 09:57:39;;;;;;;12.83;3.10;;;12.20;55.20;;;;;;4997617;28;20176;-58
2023/05/17 10:00:12;;;;;;;3.33;1.97;;;12.20;54.10;;;;;;4995947;28;20427;-58
2023/05/17 10:02:41;;;;;;;6.13;2.87;;;12.10;53.90;;;;;;4994197;28;20458;-58
2023/05/17 10:05:11;;;;;;;12.70;2.73;;;12.20;55.80;;;;;;4991817;28;21082;-58
2023/05/17 10:07:37;;;;;;;4.63;2.50;;;12.50;57.50;;;;;;4996262;28;20458;-57
2023/05/17 10:10:05;;;;;;;5.63;2.50;;;12.80;56.40;;;;;;4996368;28;20956;-59
2023/05/17 10:12:34;;;;;;;6.63;2.13;;;12.90;55.00;;;;;;4996255;28;20446;-59
2023/05/17 10:15:00;;;;;;;8.10;2.70;;;12.90;53.40;;;;;;4998779;28;20436;-59
2023/05/17 10:17:28;;;;;;;3.90;2.30;;;12.90;54.00;;;;;;4995103;28;20502;-59
2023/05/17 10:19:55;;;;;;;5.40;2.57;;;12.80;52.50;;;;;;4998384;28;20184;-59
2023/05/17 10:22:21;;;;;;;8.63;2.50;;;12.70;51.60;;;;;;4991658;28;20685;-59
2023/05/17 10:24:48;;;;;;;2.90;1.87;;;12.60;51.80;;;;;;4994949;28;20440;-57
2023/05/17 10:27:15;;;;;;;6.37;2.70;;;12.60;52.20;;;;;;4998336;28;20431;-60
2023/05/17 10:29:42;;;;;;;5.07;2.23;;;12.60;52.50;;;;;;5002892;28;20423;-59
2023/05/17 10:32:09;;;;;;;5.63;2.57;;;12.60;53.10;;;;;;4994596;28;20459;-57
2023/05/17 10:34:37;;;;;;;5.03;2.40;;;12.80;54.10;;;;;;4993752;28;20546;-59
2023/05/17 10:37:04;;;;;;;4.20;2.63;;;13.00;53.40;;;;;;5000170;28;21373;-60
2023/05/17 10:39:33;;;;;;;5.17;2.27;;;13.20;52.90;;;;;;4998062;28;20448;-59
2023/05/17 10:42:01;;;;;;;5.67;3.17;;;13.20;52.00;;;;;;4994168;28;20993;-59
2023/05/17 10:44:30;;;;;;;4.20;2.50;;;13.10;50.70;;;;;;4996258;28;20427;-60
2023/05/17 10:46:58;;;;;;;3.90;2.37;;;13.10;51.30;;;;;;4998991;28;20439;-58
2023/05/17 10:49:31;;;;;;;2.47;1.97;;;13.10;50.80;;;;;;4995776;28;20507;-58
2023/05/17 10:52:18;;;;;;;3.20;2.17;;;13.10;49.60;;;;;;4994137;28;20475;-57
2023/05/17 10:54:46;;;;;;;6.07;2.00;;;13.10;49.30;;;;;;4998705;28;20477;-58
2023/05/17 10:57:41;;;;;;;9.23;2.50;;;13.30;50.50;;;;;;4998484;28;21105;-57
2023/05/17 11:00:11;;;;;;;2.60;2.07;;;13.50;49.30;;;;;;4980385;28;20436;-56
2023/05/17 11:02:41;;;;;;;5.70;2.70;;;13.50;49.30;;;;;;4998291;28;20498;-59
2023/05/17 11:05:21;;;;;;;3.17;2.67;;;13.70;49.40;;;;;;4994463;28;20521;-58
2023/05/17 11:07:47;;;;;;;6.60;2.60;;;13.80;49.50;;;;;;5002085;28;20438;-58
2023/05/17 11:10:13;;;;;;;3.17;2.40;;;13.90;49.40;;;;;;4992775;28;20803;-60
2023/05/17 11:12:43;;;;;;;6.27;2.40;;;14.00;48.20;;;;;;4992908;28;20960;-59
2023/05/17 11:15:11;;;;;;;3.10;2.10;;;14.20;48.00;;;;;;4997842;28;20189;-59
2023/05/17 11:17:42;;;;;;;5.80;2.70;;;14.40;47.50;;;;;;4997054;28;20451;-60
2023/05/17 11:20:14;;;;;;;6.17;2.43;;;14.40;48.00;;;;;;4995505;28;20525;-57
2023/05/17 11:22:41;;;;;;;3.83;2.37;;;14.50;47.40;;;;;;4998974;28;20471;-58
2023/05/17 11:25:12;;;;;;;3.37;2.27;;;14.50;46.40;;;;;;4997918;28;20425;-56
2023/05/17 11:27:42;;;;;;;3.60;2.40;;;14.40;47.40;;;;;;4992566;28;20546;-58
2023/05/17 11:30:21;;;;;;;4.30;2.70;;;14.20;48.50;;;;;;4995010;28;20427;-59
2023/05/17 11:33:03;;;;;;;6.17;2.77;;;14.00;48.60;;;;;;5001416;28;20469;-57
2023/05/17 11:35:37;;;;;;;4.67;2.40;;;14.00;48.90;;;;;;4995839;28;20435;-55
2023/05/17 11:38:12;;;;;;;6.80;2.70;;;14.10;49.70;;;;;;4991123;28;20443;-56
2023/05/17 11:40:39;;;;;;;6.80;3.10;;;14.40;50.90;;;;;;4999279;28;20450;-57
2023/05/17 11:43:14;;;;;;;4.03;2.70;;;14.60;50.20;;;;;;4997264;28;20459;-57
2023/05/17 11:45:49;;;;;;;4.57;2.67;;;14.80;48.00;;;;;;4990679;28;20823;-57
2023/05/17 11:48:17;;;;;;;2.90;2.53;;;15.00;48.60;;;;;;4992950;28;20434;-58
2023/05/17 11:50:44;;;;;;;4.07;2.43;;;15.20;47.40;;;;;;4996616;28;20673;-57
2023/05/17 11:53:11;;;;;;;5.63;2.50;;;15.50;45.90;;;;;;4996476;28;20464;-56
2023/05/17 11:55:56;;;;;;;2.57;2.30;;;15.80;47.80;;;;;;4999952;28;21037;-59
2023/05/17 11:58:25;;;;;;;3.13;2.33;;;16.00;46.90;;;;;;4996679;28;20428;-58
2023/05/17 12:00:53;;;;;;;6.70;2.77;;;16.10;45.30;;;;;;4998096;28;20438;-58
2023/05/17 12:03:28;;;;;;;5.33;2.53;;;16.10;45.60;;;;;;5017528;28;20501;-58
2023/05/17 12:06:16;;;;;;;6.50;2.77;;;16.10;47.00;;;;;;4998808;28;20434;-58
2023/05/17 12:08:45;;;;;;;3.10;2.67;;;16.20;47.00;;;;;;4997403;28;20939;-57
2023/05/17 12:11:16;;;;;;;6.17;2.67;;;16.30;45.80;;;;;;4996563;28;20439;-57
2023/05/17 12:13:42;;;;;;;9.10;2.77;;;16.60;45.40;;;;;;4998562;28;20451;-59
2023/05/17 12:16:14;;;;;;;5.90;3.10;;;16.80;44.30;;;;;;4996605;28;21514;-60
2023/05/17 12:18:46;;;;;;;4.77;2.63;;;17.00;43.10;;;;;;4998983;28;20823;-57
2023/05/17 12:21:14;;;;;;;3.70;2.30;;;16.90;42.80;;;;;;4994262;28;20456;-59
2023/05/17 12:23:44;;;;;;;5.20;2.40;;;16.50;43.90;;;;;;4998097;28;20455;-58
2023/05/17 12:26:14;;;;;;;7.57;3.30;;;16.00;44.10;;;;;;5002941;28;20522;-58
2023/05/17 12:29:00;;;;;;;7.37;2.87;;;15.50;45.20;;;;;;5001674;28;20432;-58
2023/05/17 12:31:40;;;;;;;4.63;3.03;;;15.10;46.00;;;;;;5001006;28;20439;-60
2023/05/17 12:34:11;;;;;;;6.83;3.03;;;14.90;47.20;;;;;;5002211;28;20801;-59
2023/05/17 12:36:37;;;;;;;7.03;2.60;;;14.60;47.60;;;;;;4999445;28;20423;-60
2023/05/17 12:39:05;;;;;;;6.13;2.93;;;14.50;48.60;;;;;;4998820;28;20450;-59
2023/05/17 12:41:31;;;;;;;4.23;2.50;;;14.60;48.80;;;;;;4997855;28;20458;-58
2023/05/17 12:43:56;;;;;;;4.80;2.37;;;14.90;49.60;;;;;;5000785;28;20439;-60
2023/05/17 12:46:23;;;;;;;4.90;3.10;;;15.10;48.60;;;;;;5000226;28;20766;-59
2023/05/17 12:48:50;;;;;;;10.23;3.20;;;15.10;47.30;;;;;;4987356;28;20288;-58
2023/05/17 12:51:16;;;;;;;10.37;3.70;;;14.90;47.30;;;;;;4990182;28;20446;-59
2023/05/17 12:53:53;;;;;;;6.77;3.00;;;14.80;48.10;;;;;;4983440;28;20514;-57